createdAt,value
2022-12-29T00:01:53.927Z,8.00
2022-12-29T00:04:24.101Z,8.00
2022-12-29T00:06:52.331Z,8.00
2022-12-29T00:09:20.491Z,8.00
2022-12-29T00:11:48.704Z,7.90
2022-12-29T00:14:34.291Z,8.00
2022-12-29T00:17:02.968Z,8.00
2022-12-29T00:19:50.506Z,8.00
2022-12-29T00:22:36.407Z,8.00
2022-12-29T00:25:22.890Z,8.00
2022-12-29T00:28:08.489Z,8.00
2022-12-29T00:30:56.043Z,8.00
2022-12-29T00:33:46.025Z,8.00
2022-12-29T00:36:19.836Z,8.00
2022-12-29T00:39:10.959Z,8.00
2022-12-29T00:41:56.611Z,8.00
2022-12-29T00:44:24.903Z,8.00
2022-12-29T00:46:53.143Z,8.00
2022-12-29T00:49:33.279Z,8.10
2022-12-29T00:52:06.043Z,8.00
2022-12-29T00:54:37.313Z,8.00
2022-12-29T00:57:07.338Z,8.00
2022-12-29T00:59:37.443Z,8.00
2022-12-29T01:02:06.034Z,8.00
2022-12-29T01:04:34.892Z,8.00
2022-12-29T01:07:04.620Z,8.00
2022-12-29T01:09:51.552Z,8.00
2022-12-29T01:12:40.893Z,8.00
2022-12-29T01:15:13.195Z,8.00
2022-12-29T01:17:41.387Z,8.10
2022-12-29T01:20:10.996Z,8.00
2022-12-29T01:22:41.220Z,8.10
2022-12-29T01:25:10.006Z,8.10
2022-12-29T01:27:40.191Z,8.10
2022-12-29T01:30:09.406Z,8.10
2022-12-29T01:32:37.613Z,8.10
2022-12-29T01:35:06.768Z,8.10
2022-12-29T01:37:36.674Z,8.10
2022-12-29T01:40:07.390Z,8.10
2022-12-29T01:42:38.611Z,8.10
2022-12-29T01:45:11.372Z,8.10
2022-12-29T01:47:43.820Z,8.10
2022-12-29T01:50:17.033Z,8.10
2022-12-29T01:52:53.531Z,8.10
2022-12-29T01:55:23.876Z,8.10
2022-12-29T01:57:55.269Z,8.10
2022-12-29T02:00:25.761Z,8.00
2022-12-29T02:02:55.416Z,8.00
2022-12-29T02:05:29.698Z,8.00
2022-12-29T02:07:58.014Z,8.00
2022-12-29T02:10:29.751Z,8.00
2022-12-29T02:12:58.716Z,7.90
2022-12-29T02:15:36.710Z,7.90
2022-12-29T02:18:27.439Z,7.90
2022-12-29T02:21:37.945Z,7.80
2022-12-29T02:24:41.628Z,7.80
2022-12-29T02:27:36.414Z,7.80
2022-12-29T02:30:08.550Z,7.80
2022-12-29T02:32:47.911Z,7.80
2022-12-29T02:35:27.589Z,7.80
2022-12-29T02:38:05.201Z,7.80
2022-12-29T02:40:41.091Z,7.80
2022-12-29T02:43:16.335Z,7.70
2022-12-29T02:45:53.894Z,7.70
2022-12-29T02:48:30.321Z,7.70
2022-12-29T02:51:01.850Z,7.70
2022-12-29T02:53:49.262Z,7.60
2022-12-29T02:56:17.450Z,7.60
2022-12-29T02:58:48.345Z,7.50
2022-12-29T03:01:31.530Z,7.50
2022-12-29T03:04:22.141Z,7.40
2022-12-29T03:06:58.274Z,7.40
2022-12-29T03:09:38.245Z,7.30
2022-12-29T03:12:16.514Z,7.30
2022-12-29T03:15:17.240Z,7.20
2022-12-29T03:17:53.704Z,7.10
2022-12-29T03:20:30.723Z,7.10
2022-12-29T03:23:03.973Z,7.10
2022-12-29T03:25:40.288Z,7.00
2022-12-29T03:28:15.843Z,6.90
2022-12-29T03:30:48.647Z,6.90
2022-12-29T03:33:23.398Z,6.80
2022-12-29T03:35:57.903Z,6.70
2022-12-29T03:38:32.448Z,6.70
2022-12-29T03:41:03.896Z,6.70
2022-12-29T03:43:33.040Z,6.60
2022-12-29T03:46:01.431Z,6.60
2022-12-29T03:48:30.114Z,6.50
2022-12-29T03:50:59.897Z,6.40
2022-12-29T03:53:29.559Z,6.40
2022-12-29T03:55:57.727Z,6.30
2022-12-29T03:58:26.627Z,6.30
2022-12-29T04:01:03.336Z,6.30
2022-12-29T04:03:34.293Z,6.30
2022-12-29T04:06:04.684Z,6.20
2022-12-29T04:08:40.749Z,6.20
2022-12-29T04:11:08.973Z,6.20
2022-12-29T04:13:37.398Z,6.20
2022-12-29T04:16:06.263Z,6.20
2022-12-29T04:18:34.675Z,6.20
2022-12-29T04:21:05.041Z,6.20
2022-12-29T04:23:37.737Z,6.20
2022-12-29T04:26:10.118Z,6.10
2022-12-29T04:28:50.300Z,6.20
2022-12-29T04:31:38.798Z,6.20
2022-12-29T04:34:07.884Z,6.20
2022-12-29T04:36:37.475Z,6.20
2022-12-29T04:39:06.667Z,6.20
2022-12-29T04:41:37.301Z,6.20
2022-12-29T04:44:07.467Z,6.20
2022-12-29T04:46:41.798Z,6.20
2022-12-29T04:49:16.266Z,6.20
2022-12-29T04:51:53.699Z,6.20
2022-12-29T04:54:22.146Z,6.10
2022-12-29T04:57:13.533Z,6.10
2022-12-29T04:59:47.124Z,6.10
2022-12-29T05:02:18.726Z,6.10
2022-12-29T05:04:48.659Z,6.20
2022-12-29T05:07:19.303Z,6.10
2022-12-29T05:09:47.663Z,6.10
2022-12-29T05:12:16.013Z,6.10
2022-12-29T05:14:56.677Z,6.20
2022-12-29T05:17:24.944Z,6.20
2022-12-29T05:19:53.279Z,6.20
2022-12-29T05:22:23.787Z,6.20
2022-12-29T05:24:52.504Z,6.20
2022-12-29T05:27:20.760Z,6.20
2022-12-29T05:30:24.075Z,6.20
2022-12-29T05:32:52.503Z,6.20
2022-12-29T05:35:23.458Z,6.20
2022-12-29T05:37:52.982Z,6.20
2022-12-29T05:40:21.431Z,6.20
2022-12-29T05:42:50.108Z,6.20
2022-12-29T05:45:41.341Z,6.10
2022-12-29T05:48:35.927Z,6.10
2022-12-29T05:51:19.969Z,6.20
2022-12-29T05:53:51.863Z,6.10
2022-12-29T05:56:20.334Z,6.10
2022-12-29T05:58:55.290Z,6.10
2022-12-29T06:01:25.159Z,6.20
2022-12-29T06:03:53.553Z,6.20
2022-12-29T06:06:22.791Z,6.20
2022-12-29T06:08:55.555Z,6.20
2022-12-29T06:11:23.773Z,6.20
2022-12-29T06:13:56.341Z,6.20
2022-12-29T06:16:26.026Z,6.20
2022-12-29T06:18:57.383Z,6.20
2022-12-29T06:21:25.694Z,6.30
2022-12-29T06:23:55.717Z,6.20
2022-12-29T06:26:24.083Z,6.20
2022-12-29T06:28:52.932Z,6.30
2022-12-29T06:31:21.250Z,6.20
2022-12-29T06:33:50.507Z,6.30
2022-12-29T06:36:19.143Z,6.20
2022-12-29T06:38:49.851Z,6.20
2022-12-29T06:41:19.425Z,6.30
2022-12-29T06:44:07.604Z,6.30
2022-12-29T06:46:51.352Z,6.30
2022-12-29T06:49:19.629Z,6.30
2022-12-29T06:51:48.063Z,6.40
2022-12-29T06:54:16.212Z,6.40
2022-12-29T06:56:46.465Z,6.40
2022-12-29T06:59:14.743Z,6.40
2022-12-29T07:01:43.026Z,6.50
2022-12-29T07:04:11.283Z,6.50
2022-12-29T07:06:39.716Z,6.50
2022-12-29T07:09:07.878Z,6.60
2022-12-29T07:11:36.164Z,6.60
2022-12-29T07:14:05.951Z,6.50
2022-12-29T07:16:35.400Z,6.60
2022-12-29T07:19:03.680Z,6.60
2022-12-29T07:21:32.204Z,6.60
2022-12-29T07:24:00.415Z,6.70
2022-12-29T07:26:34.418Z,6.70
2022-12-29T07:29:06.053Z,6.70
2022-12-29T07:31:34.357Z,6.70
2022-12-29T07:34:02.765Z,6.80
2022-12-29T07:36:34.442Z,6.80
2022-12-29T07:39:04.403Z,6.80
2022-12-29T07:41:32.697Z,6.80
2022-12-29T07:44:05.507Z,6.80
2022-12-29T07:46:55.318Z,6.90
2022-12-29T07:49:27.876Z,6.90
2022-12-29T07:51:56.110Z,6.90
2022-12-29T07:54:24.755Z,7.00
2022-12-29T07:56:53.083Z,7.00
2022-12-29T07:59:22.809Z,7.00
2022-12-29T08:01:51.123Z,7.10
2022-12-29T08:04:22.106Z,7.10
2022-12-29T08:06:50.376Z,7.20
2022-12-29T08:09:22.712Z,7.20
2022-12-29T08:11:53.884Z,7.30
2022-12-29T08:14:23.442Z,7.30
2022-12-29T08:16:51.640Z,7.40
2022-12-29T08:19:19.816Z,7.40
2022-12-29T08:21:50.369Z,7.50
2022-12-29T08:24:18.519Z,7.50
2022-12-29T08:26:46.766Z,7.60
2022-12-29T08:29:15.010Z,7.70
2022-12-29T08:31:44.609Z,7.90
2022-12-29T08:34:12.959Z,7.90
2022-12-29T08:36:41.368Z,7.90
2022-12-29T08:39:09.568Z,8.00
2022-12-29T08:41:37.784Z,8.10
2022-12-29T08:44:06.353Z,8.20
2022-12-29T08:46:34.621Z,8.20
2022-12-29T08:49:04.172Z,8.30
2022-12-29T08:51:32.443Z,8.30
2022-12-29T08:54:01.035Z,8.40
2022-12-29T08:56:29.929Z,8.50
2022-12-29T08:58:59.686Z,8.40
2022-12-29T09:01:31.566Z,8.50
2022-12-29T09:04:14.724Z,8.60
2022-12-29T09:06:43.786Z,8.70
2022-12-29T09:09:12.456Z,8.70
2022-12-29T09:11:41.106Z,8.80
2022-12-29T09:14:09.398Z,8.80
2022-12-29T09:16:38.325Z,8.90
2022-12-29T09:19:08.031Z,8.90
2022-12-29T09:21:36.175Z,9.00
2022-12-29T09:24:04.806Z,9.00
2022-12-29T09:26:33.018Z,9.10
2022-12-29T09:29:01.227Z,9.20
2022-12-29T09:31:29.487Z,9.30
2022-12-29T09:33:57.747Z,9.40
2022-12-29T09:36:27.238Z,9.50
2022-12-29T09:38:55.792Z,9.60
2022-12-29T09:41:29.585Z,9.60
2022-12-29T09:44:08.861Z,9.60
2022-12-29T09:46:39.454Z,9.60
2022-12-29T09:49:18.462Z,9.60
2022-12-29T09:51:52.289Z,9.60
2022-12-29T09:54:40.938Z,9.70
2022-12-29T09:57:17.733Z,9.60
2022-12-29T09:59:48.769Z,9.70
2022-12-29T10:02:42.143Z,9.70
2022-12-29T10:05:37.360Z,9.70
2022-12-29T10:08:22.696Z,9.70
2022-12-29T10:10:57.999Z,9.80
2022-12-29T10:13:41.314Z,9.80
2022-12-29T10:16:15.934Z,9.80
2022-12-29T10:19:12.829Z,9.80
2022-12-29T10:21:52.626Z,9.80
2022-12-29T10:24:24.172Z,9.80
2022-12-29T10:26:54.107Z,9.70
2022-12-29T10:29:26.660Z,9.80
2022-12-29T10:32:00.701Z,9.80
2022-12-29T10:34:33.482Z,9.80
2022-12-29T10:37:07.458Z,9.90
2022-12-29T10:39:45.348Z,9.90
2022-12-29T10:42:22.143Z,9.90
2022-12-29T10:44:50.535Z,9.80
2022-12-29T10:47:23.445Z,9.90
2022-12-29T10:49:52.250Z,9.90
2022-12-29T10:52:23.104Z,9.90
2022-12-29T10:54:57.699Z,10.00
2022-12-29T10:57:32.888Z,10.00
2022-12-29T11:00:01.093Z,10.10
2022-12-29T11:02:51.731Z,10.20
2022-12-29T11:05:27.643Z,10.20
2022-12-29T11:08:01.527Z,10.20
2022-12-29T11:10:40.833Z,10.20
2022-12-29T11:13:16.147Z,10.20
2022-12-29T11:15:46.456Z,10.30
2022-12-29T11:18:23.331Z,10.30
2022-12-29T11:20:53.375Z,10.40
2022-12-29T11:23:27.848Z,10.40
2022-12-29T11:26:21.475Z,10.50
2022-12-29T11:29:07.648Z,10.50
2022-12-29T11:31:42.899Z,10.50
2022-12-29T11:34:18.554Z,10.60
2022-12-29T11:36:51.024Z,10.60
2022-12-29T11:39:36.143Z,10.60
2022-12-29T11:42:10.553Z,10.60
2022-12-29T11:44:44.408Z,10.60
2022-12-29T11:47:23.450Z,10.60
2022-12-29T11:49:54.860Z,10.60
2022-12-29T11:52:25.795Z,10.70
2022-12-29T11:54:55.380Z,10.70
2022-12-29T11:57:26.545Z,10.70
2022-12-29T11:59:58.190Z,10.80
2022-12-29T12:02:43.904Z,10.70
2022-12-29T12:05:31.554Z,10.80
2022-12-29T12:08:05.151Z,10.80
2022-12-29T12:10:43.886Z,10.80
2022-12-29T12:13:22.857Z,10.80
2022-12-29T12:15:57.484Z,10.80
2022-12-29T12:18:40.218Z,10.80
2022-12-29T12:21:15.107Z,10.90
2022-12-29T12:23:55.072Z,10.90
2022-12-29T12:26:30.254Z,10.90
2022-12-29T12:29:03.133Z,10.90
2022-12-29T12:31:44.046Z,11.00
2022-12-29T12:34:18.381Z,11.00
2022-12-29T12:37:05.889Z,11.00
2022-12-29T12:39:46.203Z,11.00
2022-12-29T12:42:29.463Z,11.00
2022-12-29T12:45:16.299Z,11.00
2022-12-29T12:48:00.740Z,11.00
2022-12-29T12:50:44.855Z,11.10
2022-12-29T12:53:28.199Z,11.10
2022-12-29T12:56:13.459Z,11.20
2022-12-29T12:58:48.370Z,11.20
2022-12-29T13:01:30.590Z,11.20
2022-12-29T13:04:28.625Z,11.30
2022-12-29T13:07:09.899Z,11.30
2022-12-29T13:09:58.678Z,11.30
2022-12-29T13:12:38.505Z,11.30
2022-12-29T13:15:21.335Z,11.40
2022-12-29T13:17:58.351Z,11.40
2022-12-29T13:20:35.040Z,11.40
2022-12-29T13:23:10.372Z,11.40
2022-12-29T13:25:47.749Z,11.50
2022-12-29T13:28:22.396Z,11.40
2022-12-29T13:31:01.195Z,11.40
2022-12-29T13:33:40.813Z,11.40
2022-12-29T13:36:15.687Z,11.40
2022-12-29T13:38:48.065Z,11.50
2022-12-29T13:41:20.953Z,11.40
2022-12-29T13:43:52.006Z,11.50
2022-12-29T13:46:25.823Z,11.40
2022-12-29T13:49:00.534Z,11.40
2022-12-29T13:51:29.975Z,11.40
2022-12-29T13:54:08.006Z,11.40
2022-12-29T13:56:41.517Z,11.40
2022-12-29T13:59:19.410Z,11.40
2022-12-29T14:01:55.425Z,11.40
2022-12-29T14:04:27.252Z,11.40
2022-12-29T14:07:05.070Z,11.40
2022-12-29T14:09:47.370Z,11.50
2022-12-29T14:12:30.228Z,11.50
2022-12-29T14:15:06.250Z,11.40
2022-12-29T14:17:45.276Z,11.50
2022-12-29T14:20:23.422Z,11.40
2022-12-29T14:23:01.052Z,11.40
2022-12-29T14:25:57.311Z,11.40
2022-12-29T14:28:27.325Z,11.40
2022-12-29T14:30:57.212Z,11.40
2022-12-29T14:33:28.231Z,11.40
2022-12-29T14:35:58.539Z,11.40
2022-12-29T14:38:32.350Z,11.40
2022-12-29T14:41:21.151Z,11.40
2022-12-29T14:44:18.864Z,11.40
2022-12-29T14:46:50.329Z,11.40
2022-12-29T14:49:22.492Z,11.30
2022-12-29T14:51:54.145Z,11.30
2022-12-29T14:54:46.062Z,11.40
2022-12-29T14:57:35.082Z,11.30
2022-12-29T15:00:19.452Z,11.30
2022-12-29T15:02:51.610Z,11.30
2022-12-29T15:05:32.636Z,11.30
2022-12-29T15:08:05.428Z,11.30
2022-12-29T15:10:41.657Z,11.30
2022-12-29T15:13:19.257Z,11.30
2022-12-29T15:15:48.704Z,11.30
2022-12-29T15:18:24.877Z,11.30
2022-12-29T15:20:55.845Z,11.30
2022-12-29T15:23:26.380Z,11.20
2022-12-29T15:25:57.720Z,11.20
2022-12-29T15:28:27.215Z,11.20
2022-12-29T15:30:57.596Z,11.10
2022-12-29T15:33:39.463Z,11.10
2022-12-29T15:36:13.702Z,11.10
2022-12-29T15:38:45.745Z,11.10
2022-12-29T15:41:54.603Z,11.10
2022-12-29T15:44:26.430Z,11.10
2022-12-29T15:46:54.659Z,11.10
2022-12-29T15:49:28.838Z,11.10
2022-12-29T15:52:02.659Z,11.10
2022-12-29T15:54:33.404Z,11.00
2022-12-29T15:57:01.715Z,11.00
2022-12-29T15:59:31.279Z,10.90
2022-12-29T16:02:02.788Z,10.90
2022-12-29T16:04:48.663Z,10.90
2022-12-29T16:07:28.361Z,10.80
2022-12-29T16:10:00.131Z,10.80
2022-12-29T16:12:33.469Z,10.80
2022-12-29T16:15:05.024Z,10.80
2022-12-29T16:17:36.228Z,10.80
2022-12-29T16:20:09.312Z,10.80
2022-12-29T16:22:41.868Z,10.70
2022-12-29T16:25:21.402Z,10.70
2022-12-29T16:27:53.180Z,10.60
2022-12-29T16:30:29.539Z,10.70
2022-12-29T16:33:03.736Z,10.60
2022-12-29T16:35:41.624Z,10.60
2022-12-29T16:38:16.466Z,10.70
2022-12-29T16:40:54.496Z,10.60
2022-12-29T16:43:25.660Z,10.60
2022-12-29T16:46:20.548Z,10.50
2022-12-29T16:48:52.857Z,10.50
2022-12-29T16:51:32.110Z,10.50
2022-12-29T16:54:01.525Z,10.50
2022-12-29T16:56:33.903Z,10.40
2022-12-29T16:59:05.868Z,10.50
2022-12-29T17:01:38.707Z,10.50
2022-12-29T17:04:09.818Z,10.50
2022-12-29T17:06:38.054Z,10.50
2022-12-29T17:09:19.108Z,10.50
2022-12-29T17:12:01.696Z,10.60
2022-12-29T17:14:52.891Z,10.60
2022-12-29T17:17:28.003Z,10.60
2022-12-29T17:20:05.432Z,10.60
2022-12-29T17:22:34.496Z,10.60
2022-12-29T17:25:03.877Z,10.60
2022-12-29T17:27:39.345Z,10.70
2022-12-29T17:30:13.344Z,10.70
2022-12-29T17:32:42.292Z,10.70
2022-12-29T17:35:15.895Z,10.80
2022-12-29T17:37:44.972Z,10.80
2022-12-29T17:40:16.748Z,10.80
2022-12-29T17:42:48.034Z,10.80
2022-12-29T17:45:18.225Z,10.80
2022-12-29T17:47:46.849Z,10.80
2022-12-29T17:50:16.844Z,10.90
2022-12-29T17:52:52.855Z,10.80
2022-12-29T17:55:25.065Z,10.90
2022-12-29T17:57:54.682Z,10.80
2022-12-29T18:00:24.994Z,10.80
2022-12-29T18:02:53.380Z,10.80
2022-12-29T18:05:24.438Z,10.80
2022-12-29T18:07:53.611Z,10.70
2022-12-29T18:10:22.623Z,10.80
2022-12-29T18:12:52.856Z,10.70
2022-12-29T18:15:24.259Z,10.70
2022-12-29T18:17:59.861Z,10.70
2022-12-29T18:20:29.119Z,10.70
2022-12-29T18:22:58.868Z,10.70
2022-12-29T18:25:31.519Z,10.70
2022-12-29T18:27:59.733Z,10.70
2022-12-29T18:30:29.322Z,10.70
2022-12-29T18:33:00.146Z,10.70
2022-12-29T18:35:34.507Z,10.60
2022-12-29T18:38:02.748Z,10.60
2022-12-29T18:40:30.939Z,10.60
2022-12-29T18:42:59.113Z,10.60
2022-12-29T18:45:29.201Z,10.60
2022-12-29T18:47:57.384Z,10.50
2022-12-29T18:50:25.549Z,10.50
2022-12-29T18:52:56.154Z,10.50
2022-12-29T18:55:29.871Z,10.50
2022-12-29T18:58:00.484Z,10.40
2022-12-29T19:00:30.195Z,10.40
2022-12-29T19:02:58.511Z,10.40
2022-12-29T19:05:32.873Z,10.40
2022-12-29T19:08:01.013Z,10.40
2022-12-29T19:10:29.658Z,10.40
2022-12-29T19:12:57.844Z,10.40
2022-12-29T19:15:28.127Z,10.40
2022-12-29T19:18:42.382Z,10.40
2022-12-29T19:20:56.877Z,10.40
2022-12-29T19:23:27.551Z,10.30
2022-12-29T19:25:56.242Z,10.30
2022-12-29T19:28:26.602Z,10.30
2022-12-29T19:30:57.400Z,10.30
2022-12-29T19:33:28.203Z,10.30
2022-12-29T19:36:00.898Z,10.30
2022-12-29T19:38:29.249Z,10.30
2022-12-29T19:40:57.857Z,10.30
2022-12-29T19:43:26.105Z,10.20
2022-12-29T19:45:54.300Z,10.20
2022-12-29T19:48:22.910Z,10.20
2022-12-29T19:50:52.504Z,10.20
2022-12-29T19:53:20.990Z,10.20
2022-12-29T19:55:49.265Z,10.20
2022-12-29T19:58:17.611Z,10.20
2022-12-29T20:00:45.877Z,10.20
2022-12-29T20:03:14.143Z,10.20
2022-12-29T20:05:42.459Z,10.20
2022-12-29T20:08:12.024Z,10.20
2022-12-29T20:10:40.198Z,10.30
2022-12-29T20:13:08.475Z,10.30
2022-12-29T20:15:36.663Z,10.30
2022-12-29T20:18:14.069Z,10.40
2022-12-29T20:20:42.792Z,10.30
2022-12-29T20:23:12.463Z,10.40
2022-12-29T20:25:45.559Z,10.30
2022-12-29T20:28:14.924Z,10.40
2022-12-29T20:30:43.516Z,10.40
2022-12-29T20:33:11.870Z,10.40
2022-12-29T20:35:40.276Z,10.40
2022-12-29T20:38:08.571Z,10.40
2022-12-29T20:40:46.026Z,10.40
2022-12-29T20:43:16.179Z,10.40
2022-12-29T20:45:44.822Z,10.40
2022-12-29T20:48:13.177Z,10.40
2022-12-29T20:50:41.427Z,10.40
2022-12-29T20:53:09.726Z,10.50
2022-12-29T20:55:41.217Z,10.50
2022-12-29T20:58:25.807Z,10.50
2022-12-29T21:00:54.753Z,10.50
2022-12-29T21:03:25.860Z,10.50
2022-12-29T21:05:55.367Z,10.60
2022-12-29T21:08:24.209Z,10.60
2022-12-29T21:10:54.994Z,10.60
2022-12-29T21:13:23.386Z,10.60
2022-12-29T21:15:57.564Z,10.60
2022-12-29T21:18:26.241Z,10.60
2022-12-29T21:20:58.471Z,10.70
2022-12-29T21:23:27.086Z,10.60
2022-12-29T21:25:57.031Z,10.70
2022-12-29T21:28:26.125Z,10.70
2022-12-29T21:30:54.604Z,10.70
2022-12-29T21:33:23.116Z,10.70
2022-12-29T21:35:51.465Z,10.70
2022-12-29T21:38:19.692Z,10.80
2022-12-29T21:40:48.730Z,10.70
2022-12-29T21:43:18.334Z,10.70
2022-12-29T21:45:49.904Z,10.70
2022-12-29T21:48:25.107Z,10.80
2022-12-29T21:51:13.160Z,10.80
2022-12-29T21:53:43.396Z,10.80
2022-12-29T21:56:16.369Z,10.80
2022-12-29T21:59:07.781Z,10.80
2022-12-29T22:01:55.739Z,10.80
2022-12-29T22:04:43.750Z,10.80
2022-12-29T22:07:31.355Z,10.80
2022-12-29T22:10:17.085Z,10.80
2022-12-29T22:13:00.965Z,10.80
2022-12-29T22:15:35.284Z,10.80
2022-12-29T22:18:04.629Z,10.80
2022-12-29T22:20:34.899Z,10.80
2022-12-29T22:23:05.525Z,10.80
2022-12-29T22:25:34.291Z,10.80
2022-12-29T22:28:02.532Z,10.70
2022-12-29T22:30:30.865Z,10.80
2022-12-29T22:33:01.586Z,10.70
2022-12-29T22:35:29.941Z,10.70
2022-12-29T22:37:58.248Z,10.70
2022-12-29T22:40:26.533Z,10.70
2022-12-29T22:42:54.730Z,10.70
2022-12-29T22:45:23.019Z,10.70
2022-12-29T22:47:51.233Z,10.70
2022-12-29T22:50:20.832Z,10.70
2022-12-29T22:52:49.397Z,10.70
2022-12-29T22:55:17.745Z,10.70
2022-12-29T22:57:45.931Z,10.70
2022-12-29T23:00:17.353Z,10.70
2022-12-29T23:02:45.738Z,10.70
2022-12-29T23:05:14.087Z,10.70
2022-12-29T23:07:43.691Z,10.70
2022-12-29T23:10:14.194Z,10.70
2022-12-29T23:12:42.440Z,10.70
2022-12-29T23:15:11.612Z,10.60
2022-12-29T23:17:39.796Z,10.70
2022-12-29T23:20:08.999Z,10.60
2022-12-29T23:22:37.254Z,10.60
2022-12-29T23:25:08.532Z,10.60
2022-12-29T23:27:36.708Z,10.60
2022-12-29T23:30:05.525Z,10.60
2022-12-29T23:32:33.697Z,10.60
2022-12-29T23:35:01.855Z,10.60
2022-12-29T23:37:30.110Z,10.60
2022-12-29T23:39:58.369Z,10.60
2022-12-29T23:42:27.999Z,10.50
2022-12-29T23:44:56.247Z,10.60
2022-12-29T23:47:24.368Z,10.50
2022-12-29T23:49:52.575Z,10.50
2022-12-29T23:52:20.781Z,10.50
2022-12-29T23:54:51.434Z,10.60
2022-12-29T23:57:19.792Z,10.60
2022-12-29T23:59:49.328Z,10.60
